PWSweather.com
Personal Weather Stations
Station Observations
KAZPHOEN90
RayThunderhill, Phoenix, AZ

RayThunderhillPhoenix, AZ

Lat: 33.312, Lon: -112.029

Elevation: 1260

Station Type: Davis Vantage VUE

Latest ConditionsUpdated 3:15:01 PM MST Friday, Feb 12, 2016
Currently Today's Max Today's Min Today's Average
Temperature 86.8°F30.4°C 86.8°F30.4°C 47.6°F8.7°C 63.0°F17.2°C
Dew Point 21.2°F-6.0°C 36.0°F2.2°C 21.2°F-6.0°C 32.2°F0.1°C
Winds 0.4 mph SE0.6 kmh SE 1.3 mph NW2.1 kmh NW - 0.2 mph 0.3 kmh
Wind Gusts 1.0 mph1.6 kmh 3.0 mph4.8 kmh - -
Humidity 9% 61% 9% 36%
Pressure 29.97 in1014.9 mb 30.12 in1020.0 mb 29.97 in1014.9 mb -
Hour Temp Dew Point Humidity Winds Wind Gusts Pressure Precip Precip Rate Daily Precip Total
03:15 PM 86.8°F30.4°C 21.2°F-6.0°C 9% 0.4 mph SE0.6 kmh SE 1.0 mph1.6 kmh 29.97 in1014.9 mb - 0.00 in0.0 mm 0.00 in0.0 mm
03:00 PM 86.2°F30.1°C 23.2°F-4.9°C 10% 0.5 mph E0.8 kmh E 1.0 mph1.6 kmh 29.98 in1015.2 mb - 0.00 in0.0 mm 0.00 in0.0 mm
02:45 PM 86.5°F30.3°C 23.4°F-4.8°C 10% 1.0 mph SE1.6 kmh SE 2.0 mph3.2 kmh 29.98 in1015.2 mb - 0.00 in0.0 mm 0.00 in0.0 mm
02:30 PM 86.3°F30.2°C 23.3°F-4.8°C 10% 0.1 mph SE0.2 kmh SE 2.0 mph3.2 kmh 29.99 in1015.6 mb - 0.00 in0.0 mm 0.00 in0.0 mm
02:15 PM 84.8°F29.3°C 24.4°F-4.2°C 11% Calm Calm 1.0 mph1.6 kmh 30.00 in1015.9 mb - 0.00 in0.0 mm 0.00 in0.0 mm
02:00 PM 83.2°F28.4°C 25.3°F-3.7°C 12% 0.5 mph SE0.8 kmh SE 1.0 mph1.6 kmh 30.00 in1015.9 mb - 0.00 in0.0 mm 0.00 in0.0 mm
01:45 PM 82.9°F28.3°C 27.0°F-2.8°C 13% 1.2 mph S1.9 kmh S 2.0 mph3.2 kmh 30.02 in1016.6 mb - 0.00 in0.0 mm 0.00 in0.0 mm
01:30 PM 82.9°F28.3°C 27.0°F-2.8°C 13% 1.2 mph ESE1.9 kmh ESE 2.0 mph3.2 kmh 30.02 in1016.6 mb - 0.00 in0.0 mm 0.00 in0.0 mm
01:15 PM 82.7°F28.2°C 30.3°F-0.9°C 15% 0.1 mph SE0.2 kmh SE 1.0 mph1.6 kmh 30.04 in1017.3 mb - 0.00 in0.0 mm 0.00 in0.0 mm
01:00 PM 81.0°F27.2°C 32.1°F0.1°C 17% Calm Calm 1.0 mph1.6 kmh 30.05 in1017.6 mb - 0.00 in0.0 mm 0.00 in0.0 mm
12:45 PM 79.1°F26.2°C 31.9°F-0.1°C 18% 0.3 mph W0.5 kmh W 1.0 mph1.6 kmh 30.06 in1017.9 mb - 0.00 in0.0 mm 0.00 in0.0 mm
12:30 PM 77.2°F25.1°C 31.7°F-0.2°C 19% 0.2 mph N0.3 kmh N 1.0 mph1.6 kmh 30.07 in1018.3 mb - 0.00 in0.0 mm 0.00 in0.0 mm
12:15 PM 76.4°F24.7°C 32.3°F0.2°C 20% 0.2 mph ESE0.3 kmh ESE 1.0 mph1.6 kmh 30.08 in1018.6 mb - 0.00 in0.0 mm 0.00 in0.0 mm
12:00 PM 75.0°F23.9°C 32.4°F0.2°C 21% 1.3 mph NW2.1 kmh NW 2.0 mph3.2 kmh 30.09 in1019.0 mb - 0.00 in0.0 mm 0.00 in0.0 mm
11:45 AM 74.4°F23.6°C 33.0°F0.6°C 22% 0.4 mph WSW0.6 kmh WSW 2.0 mph3.2 kmh 30.09 in1019.0 mb - 0.00 in0.0 mm 0.00 in0.0 mm
11:30 AM 72.7°F22.6°C 32.8°F0.4°C 23% 0.1 mph SE0.2 kmh SE -- 30.10 in1019.3 mb - 0.00 in0.0 mm 0.00 in0.0 mm
11:15 AM 71.7°F22.1°C 31.9°F-0.1°C 23% 0.5 mph W0.8 kmh W 1.0 mph1.6 kmh 30.11 in1019.6 mb - 0.00 in0.0 mm 0.00 in0.0 mm
11:00 AM 71.3°F21.8°C 32.6°F0.3°C 24% 1.1 mph SE1.8 kmh SE 2.0 mph3.2 kmh 30.11 in1019.6 mb - 0.00 in0.0 mm 0.00 in0.0 mm
10:45 AM 70.9°F21.6°C 31.2°F-0.4°C 23% 0.4 mph SSE0.6 kmh SSE 1.0 mph1.6 kmh 30.11 in1019.6 mb - 0.00 in0.0 mm 0.00 in0.0 mm
10:30 AM 69.8°F21.0°C 31.4°F-0.3°C 24% 1.1 mph SE1.8 kmh SE 3.0 mph4.8 kmh 30.12 in1020.0 mb - 0.00 in0.0 mm 0.00 in0.0 mm
10:15 AM 69.7°F20.9°C 31.3°F-0.4°C 24% 1.1 mph SE1.8 kmh SE 1.0 mph1.6 kmh 30.12 in1020.0 mb - 0.00 in0.0 mm 0.00 in0.0 mm
10:00 AM 69.7°F20.9°C 36.0°F2.2°C 29% 0.1 mph SSW0.2 kmh SSW 1.0 mph1.6 kmh 30.12 in1020.0 mb - 0.00 in0.0 mm 0.00 in0.0 mm
09:45 AM 70.8°F21.6°C 35.2°F1.8°C 27% Calm Calm -- 30.12 in1020.0 mb - 0.00 in0.0 mm 0.00 in0.0 mm
09:30 AM 68.3°F20.2°C 35.6°F2.0°C 30% Calm Calm -- 30.12 in1020.0 mb - 0.00 in0.0 mm 0.00 in0.0 mm
09:15 AM 67.3°F19.6°C 35.6°F2.0°C 31% Calm Calm -- 30.12 in1020.0 mb - 0.00 in0.0 mm 0.00 in0.0 mm
09:00 AM 62.1°F16.7°C 34.8°F1.6°C 36% Calm Calm -- 30.11 in1019.6 mb - 0.00 in0.0 mm 0.00 in0.0 mm
08:45 AM 60.0°F15.6°C 33.6°F0.9°C 37% Calm Calm 1.0 mph1.6 kmh 30.11 in1019.6 mb - 0.00 in0.0 mm 0.00 in0.0 mm
08:30 AM 56.5°F13.6°C 34.2°F1.2°C 43% Calm Calm -- 30.11 in1019.6 mb - 0.00 in0.0 mm 0.00 in0.0 mm
08:15 AM 53.8°F12.1°C 34.0°F1.1°C 47% Calm Calm -- 30.11 in1019.6 mb - 0.00 in0.0 mm 0.00 in0.0 mm
08:00 AM 51.8°F11.0°C 34.7°F1.5°C 52% Calm Calm -- 30.10 in1019.3 mb - 0.00 in0.0 mm 0.00 in0.0 mm
07:45 AM 51.4°F10.8°C 33.9°F1.1°C 51% Calm Calm -- 30.10 in1019.3 mb - 0.00 in0.0 mm 0.00 in0.0 mm
07:30 AM 52.0°F11.1°C 34.9°F1.6°C 52% Calm Calm -- 30.10 in1019.3 mb - 0.00 in0.0 mm 0.00 in0.0 mm
07:15 AM 52.2°F11.2°C 34.1°F1.2°C 50% Calm Calm -- 30.10 in1019.3 mb - 0.00 in0.0 mm 0.00 in0.0 mm
07:00 AM 51.8°F11.0°C 34.7°F1.5°C 52% Calm Calm -- 30.09 in1019.0 mb - 0.00 in0.0 mm 0.00 in0.0 mm
06:45 AM 48.7°F9.3°C 35.0°F1.7°C 59% 0.1 mph E0.2 kmh E 1.0 mph1.6 kmh 30.09 in1019.0 mb - 0.00 in0.0 mm 0.00 in0.0 mm
06:30 AM 47.6°F8.7°C 34.8°F1.6°C 61% Calm Calm -- 30.08 in1018.6 mb - 0.00 in0.0 mm 0.00 in0.0 mm
06:15 AM 48.2°F9.0°C 34.5°F1.4°C 59% Calm Calm -- 30.07 in1018.3 mb - 0.00 in0.0 mm 0.00 in0.0 mm
06:00 AM 48.5°F9.2°C 34.8°F1.6°C 59% Calm Calm -- 30.07 in1018.3 mb - 0.00 in0.0 mm 0.00 in0.0 mm
05:45 AM 48.2°F9.0°C 34.1°F1.2°C 58% Calm Calm -- 30.07 in1018.3 mb - 0.00 in0.0 mm 0.00 in0.0 mm
05:30 AM 48.2°F9.0°C 34.6°F1.4°C 59% Calm Calm -- 30.07 in1018.3 mb - 0.00 in0.0 mm 0.00 in0.0 mm
05:15 AM 48.7°F9.3°C 34.6°F1.4°C 58% Calm Calm -- 30.07 in1018.3 mb - 0.00 in0.0 mm 0.00 in0.0 mm
05:00 AM 49.3°F9.6°C 34.2°F1.2°C 56% Calm Calm -- 30.07 in1018.3 mb - 0.00 in0.0 mm 0.00 in0.0 mm
04:45 AM 49.8°F9.9°C 34.2°F1.2°C 55% Calm Calm -- 30.07 in1018.3 mb - 0.00 in0.0 mm 0.00 in0.0 mm
04:30 AM 50.8°F10.4°C 34.2°F1.2°C 53% Calm Calm -- 30.07 in1018.3 mb - 0.00 in0.0 mm 0.00 in0.0 mm
04:15 AM 52.6°F11.4°C 34.5°F1.4°C 50% 0.1 mph SE0.2 kmh SE 1.0 mph1.6 kmh 30.07 in1018.3 mb - 0.00 in0.0 mm 0.00 in0.0 mm
04:00 AM 56.1°F13.4°C 33.9°F1.1°C 43% Calm Calm 2.0 mph3.2 kmh 30.06 in1017.9 mb - 0.00 in0.0 mm 0.00 in0.0 mm
03:45 AM 55.4°F13.0°C 33.3°F0.7°C 43% Calm Calm -- 30.06 in1017.9 mb - 0.00 in0.0 mm 0.00 in0.0 mm
03:30 AM 54.8°F12.7°C 33.3°F0.7°C 44% Calm Calm -- 30.06 in1017.9 mb - 0.00 in0.0 mm 0.00 in0.0 mm
03:15 AM 55.5°F13.1°C 33.4°F0.8°C 43% Calm Calm -- 30.06 in1017.9 mb - 0.00 in0.0 mm 0.00 in0.0 mm
03:00 AM 56.5°F13.6°C 33.1°F0.6°C 41% Calm Calm -- 30.06 in1017.9 mb - 0.00 in0.0 mm 0.00 in0.0 mm
02:45 AM 57.4°F14.1°C 32.6°F0.3°C 39% Calm Calm -- 30.06 in1017.9 mb - 0.00 in0.0 mm 0.00 in0.0 mm
02:30 AM 56.3°F13.5°C 33.4°F0.8°C 42% Calm Calm -- 30.05 in1017.6 mb - 0.00 in0.0 mm 0.00 in0.0 mm
02:15 AM 51.9°F11.1°C 32.8°F0.4°C 48% Calm Calm -- 30.06 in1017.9 mb - 0.00 in0.0 mm 0.00 in0.0 mm
02:00 AM 54.0°F12.2°C 32.5°F0.3°C 44% Calm Calm -- 30.06 in1017.9 mb - 0.00 in0.0 mm 0.00 in0.0 mm
01:45 AM 54.2°F12.3°C 32.7°F0.4°C 44% Calm Calm 1.0 mph1.6 kmh 30.06 in1017.9 mb - 0.00 in0.0 mm 0.00 in0.0 mm
01:30 AM 54.9°F12.7°C 32.2°F0.1°C 42% Calm Calm -- 30.06 in1017.9 mb - 0.00 in0.0 mm 0.00 in0.0 mm
01:15 AM 55.5°F13.1°C 32.2°F0.1°C 41% Calm Calm -- 30.06 in1017.9 mb - 0.00 in0.0 mm 0.00 in0.0 mm
01:00 AM 55.7°F13.2°C 31.8°F-0.1°C 40% Calm Calm -- 30.06 in1017.9 mb - 0.00 in0.0 mm 0.00 in0.0 mm
12:45 AM 56.1°F13.4°C 31.5°F-0.3°C 39% Calm Calm -- 30.05 in1017.6 mb - 0.00 in0.0 mm 0.00 in0.0 mm
12:30 AM 57.2°F14.0°C 31.8°F-0.1°C 38% Calm Calm -- 30.05 in1017.6 mb - 0.00 in0.0 mm 0.00 in0.0 mm
12:15 AM 57.0°F13.9°C 31.6°F-0.2°C 38% Calm Calm -- 30.05 in1017.6 mb - 0.00 in0.0 mm 0.00 in0.0 mm
12:00 AM 57.4°F14.1°C 32.0°F0.0°C 38% Calm Calm -- 30.05 in1017.6 mb - 0.00 in0.0 mm 0.00 in0.0 mm